createdAt,value
2022-10-18T00:00:31.220Z,25.30
2022-10-18T00:02:58.024Z,27.90
2022-10-18T00:05:24.887Z,26.43
2022-10-18T00:07:53.901Z,29.47
2022-10-18T00:10:20.844Z,25.03
2022-10-18T00:12:47.638Z,23.27
2022-10-18T00:15:17.092Z,24.00
2022-10-18T00:17:46.195Z,20.10
2022-10-18T00:20:16.194Z,25.43
2022-10-18T00:22:45.440Z,21.33
2022-10-18T00:25:15.364Z,18.40
2022-10-18T00:27:42.142Z,19.90
2022-10-18T00:30:09.401Z,22.57
2022-10-18T00:32:39.898Z,21.60
2022-10-18T00:35:09.547Z,21.57
2022-10-18T00:37:38.413Z,18.93
2022-10-18T00:40:06.463Z,17.23
2022-10-18T00:42:34.646Z,21.00
2022-10-18T00:45:10.123Z,15.77
2022-10-18T00:47:41.594Z,19.80
2022-10-18T00:50:08.527Z,17.33
2022-10-18T00:52:40.259Z,19.73
2022-10-18T00:55:09.592Z,16.40
2022-10-18T00:57:38.884Z,17.50
2022-10-18T01:00:09.862Z,21.50
2022-10-18T01:02:37.871Z,17.90
2022-10-18T01:05:05.210Z,14.33
2022-10-18T01:07:55.070Z,15.90
2022-10-18T01:10:33.662Z,15.37
2022-10-18T01:13:15.516Z,21.27
2022-10-18T01:16:13.512Z,16.50
2022-10-18T01:18:48.727Z,17.47
2022-10-18T01:21:18.712Z,19.53
2022-10-18T01:24:00.656Z,15.10
2022-10-18T01:26:27.410Z,14.43
2022-10-18T01:29:13.030Z,20.20
2022-10-18T01:31:46.824Z,19.30
2022-10-18T01:34:14.292Z,14.97
2022-10-18T01:36:45.050Z,14.70
2022-10-18T01:39:16.586Z,15.83
2022-10-18T01:41:46.334Z,15.67
2022-10-18T01:44:19.177Z,15.53
2022-10-18T01:46:48.480Z,15.37
2022-10-18T01:49:15.300Z,14.00
2022-10-18T01:51:42.131Z,15.17
2022-10-18T01:54:09.781Z,13.10
2022-10-18T01:57:14.510Z,16.83
2022-10-18T01:59:50.483Z,11.67
2022-10-18T02:02:26.146Z,13.40
2022-10-18T02:05:17.810Z,14.90
2022-10-18T02:08:25.931Z,17.57
2022-10-18T02:11:07.221Z,13.80
2022-10-18T02:13:45.049Z,16.77
2022-10-18T02:16:19.842Z,15.70
2022-10-18T02:19:00.758Z,12.83
2022-10-18T02:21:27.768Z,13.77
2022-10-18T02:23:54.507Z,16.67
2022-10-18T02:26:21.431Z,11.70
2022-10-18T02:28:50.633Z,11.93
2022-10-18T02:31:35.688Z,13.33
2022-10-18T02:34:07.657Z,16.07
2022-10-18T02:36:46.428Z,11.50
2022-10-18T02:39:15.186Z,15.47
2022-10-18T02:41:44.125Z,12.23
2022-10-18T02:44:11.176Z,12.87
2022-10-18T02:46:37.911Z,14.43
2022-10-18T02:49:06.767Z,15.03
2022-10-18T02:51:33.527Z,14.80
2022-10-18T02:54:02.834Z,13.03
2022-10-18T02:56:31.866Z,15.93
2022-10-18T02:58:58.618Z,13.87
2022-10-18T03:01:25.459Z,18.57
2022-10-18T03:03:52.289Z,12.83
2022-10-18T03:06:19.083Z,11.50
2022-10-18T03:08:45.895Z,8.77
2022-10-18T03:11:15.110Z,14.37
2022-10-18T03:13:44.169Z,10.63
2022-10-18T03:16:12.122Z,13.40
2022-10-18T03:18:38.851Z,15.57
2022-10-18T03:21:06.468Z,13.20
2022-10-18T03:23:33.309Z,12.27
2022-10-18T03:26:00.048Z,9.90
2022-10-18T03:28:26.946Z,12.40
2022-10-18T03:30:55.900Z,13.47
2022-10-18T03:33:22.717Z,12.20
2022-10-18T03:35:49.465Z,12.53
2022-10-18T03:38:18.604Z,13.23
2022-10-18T03:40:45.368Z,15.37
2022-10-18T03:43:12.139Z,9.83
2022-10-18T03:45:41.149Z,11.37
2022-10-18T03:48:07.894Z,12.57
2022-10-18T03:50:34.749Z,12.67
2022-10-18T03:53:01.539Z,15.67
2022-10-18T03:55:28.287Z,14.73
2022-10-18T03:57:59.435Z,10.83
2022-10-18T04:00:26.251Z,15.23
2022-10-18T04:02:55.087Z,12.40
2022-10-18T04:05:27.977Z,10.57
2022-10-18T04:07:55.133Z,10.93
2022-10-18T04:10:21.952Z,10.97
2022-10-18T04:12:48.763Z,10.03
2022-10-18T04:15:15.825Z,12.43
2022-10-18T04:17:44.752Z,11.47
2022-10-18T04:20:12.026Z,12.00
2022-10-18T04:22:41.015Z,10.10
2022-10-18T04:25:10.324Z,10.50
2022-10-18T04:27:41.813Z,13.07
2022-10-18T04:30:11.289Z,10.77
2022-10-18T04:32:38.085Z,15.40
2022-10-18T04:35:05.359Z,11.47
2022-10-18T04:37:32.564Z,12.70
2022-10-18T04:40:01.835Z,10.53
2022-10-18T04:42:30.729Z,8.67
2022-10-18T04:44:57.517Z,13.97
2022-10-18T04:47:26.465Z,10.80
2022-10-18T04:49:53.229Z,12.20
2022-10-18T04:52:20.265Z,9.63
2022-10-18T04:54:49.464Z,10.67
2022-10-18T04:57:16.218Z,12.87
2022-10-18T04:59:43.037Z,11.90
2022-10-18T05:02:11.914Z,9.80
2022-10-18T05:04:38.678Z,11.33
2022-10-18T05:07:06.647Z,10.00
2022-10-18T05:09:33.605Z,16.30
2022-10-18T05:12:00.369Z,9.30
2022-10-18T05:14:29.597Z,14.10
2022-10-18T05:16:56.365Z,13.00
2022-10-18T05:19:25.330Z,13.00
2022-10-18T05:21:52.121Z,13.00
2022-10-18T05:24:19.638Z,10.27
2022-10-18T05:26:50.241Z,16.90
2022-10-18T05:29:19.173Z,13.60
2022-10-18T05:31:46.018Z,12.80
2022-10-18T05:34:12.769Z,14.67
2022-10-18T05:36:41.945Z,12.37
2022-10-18T05:39:08.703Z,16.50
2022-10-18T05:41:36.237Z,11.00
2022-10-18T05:44:06.195Z,10.13
2022-10-18T05:46:33.208Z,14.80
2022-10-18T05:48:59.956Z,17.73
2022-10-18T05:51:26.687Z,16.33
2022-10-18T05:53:54.757Z,13.83
2022-10-18T05:56:21.665Z,10.57
2022-10-18T05:58:50.637Z,14.23
2022-10-18T06:01:19.885Z,13.20
2022-10-18T06:03:46.972Z,11.70
2022-10-18T06:06:16.225Z,12.23
2022-10-18T06:08:43.459Z,11.13
2022-10-18T06:11:17.324Z,14.53
2022-10-18T06:13:48.616Z,11.63
2022-10-18T06:16:16.540Z,12.93
2022-10-18T06:18:43.445Z,13.63
2022-10-18T06:21:10.271Z,15.37
2022-10-18T06:23:37.069Z,11.60
2022-10-18T06:26:05.774Z,13.27
2022-10-18T06:28:36.509Z,14.83
2022-10-18T06:31:03.741Z,17.67
2022-10-18T06:33:34.928Z,19.47
2022-10-18T06:36:03.292Z,14.70
2022-10-18T06:38:30.228Z,11.60
2022-10-18T06:40:57.322Z,16.33
2022-10-18T06:43:24.337Z,13.27
2022-10-18T06:45:55.869Z,14.67
2022-10-18T06:48:23.142Z,18.17
2022-10-18T06:50:52.921Z,17.07
2022-10-18T06:53:19.717Z,15.27
2022-10-18T06:55:46.914Z,19.23
2022-10-18T06:58:13.749Z,16.40
2022-10-18T07:00:43.016Z,14.60
2022-10-18T07:03:09.761Z,16.27
2022-10-18T07:05:36.714Z,16.77
2022-10-18T07:08:03.615Z,16.57
2022-10-18T07:10:30.367Z,14.93
2022-10-18T07:13:13.621Z,16.10
2022-10-18T07:15:43.901Z,16.03
2022-10-18T07:18:10.907Z,10.37
2022-10-18T07:20:37.711Z,10.57
2022-10-18T07:23:07.153Z,13.20
2022-10-18T07:25:34.376Z,17.97
2022-10-18T07:28:03.605Z,12.80
2022-10-18T07:30:30.396Z,14.30
2022-10-18T07:32:57.181Z,14.17
2022-10-18T07:35:26.203Z,18.03
2022-10-18T07:37:55.609Z,25.70
2022-10-18T07:40:22.569Z,19.67
2022-10-18T07:42:51.493Z,17.23
2022-10-18T07:45:20.781Z,16.17
2022-10-18T07:47:47.652Z,18.13
2022-10-18T07:50:14.533Z,13.27
2022-10-18T07:52:43.423Z,18.67
2022-10-18T07:55:10.537Z,18.97
2022-10-18T07:57:37.291Z,16.73
2022-10-18T08:00:06.795Z,17.87
2022-10-18T08:02:33.513Z,16.00
2022-10-18T08:05:00.302Z,17.43
2022-10-18T08:07:27.033Z,24.33
2022-10-18T08:09:53.839Z,20.83
2022-10-18T08:12:23.190Z,14.13
2022-10-18T08:14:49.965Z,15.33
2022-10-18T08:17:16.717Z,19.60
2022-10-18T08:19:52.972Z,16.73
2022-10-18T08:22:31.921Z,20.60
2022-10-18T08:25:01.174Z,15.20
2022-10-18T08:27:27.930Z,20.23
2022-10-18T08:29:59.881Z,21.57
2022-10-18T08:32:29.588Z,20.00
2022-10-18T08:34:56.601Z,22.20
2022-10-18T08:37:23.360Z,25.93
2022-10-18T08:39:50.197Z,20.17
2022-10-18T08:42:34.497Z,21.30
2022-10-18T08:45:12.612Z,21.03
2022-10-18T08:47:52.040Z,22.67
2022-10-18T08:50:22.850Z,27.43
2022-10-18T08:52:58.561Z,19.40
2022-10-18T08:55:30.998Z,20.90
2022-10-18T08:57:58.179Z,21.20
2022-10-18T09:00:26.191Z,17.77
2022-10-18T09:02:59.160Z,19.07
2022-10-18T09:05:36.260Z,35.53
2022-10-18T09:08:47.519Z,20.53
2022-10-18T09:11:39.321Z,15.57
2022-10-18T09:14:30.730Z,18.80
2022-10-18T09:17:15.072Z,22.50
2022-10-18T09:19:55.929Z,32.33
2022-10-18T09:22:50.077Z,22.47
2022-10-18T09:25:23.859Z,21.23
2022-10-18T09:27:57.283Z,24.87
2022-10-18T09:30:29.296Z,19.03
2022-10-18T09:33:24.362Z,22.97
2022-10-18T09:35:54.933Z,25.77
2022-10-18T09:38:23.257Z,19.90
2022-10-18T09:40:55.971Z,26.73
2022-10-18T09:43:39.351Z,21.87
2022-10-18T09:46:08.601Z,26.00
2022-10-18T09:48:57.101Z,23.90
2022-10-18T09:51:29.677Z,21.17
2022-10-18T09:54:13.429Z,21.23
2022-10-18T09:57:09.326Z,21.87
2022-10-18T09:59:41.880Z,22.80
2022-10-18T10:02:14.309Z,20.37
2022-10-18T10:04:43.378Z,21.17
2022-10-18T10:07:14.171Z,22.70
2022-10-18T10:10:05.528Z,22.17
2022-10-18T10:12:37.182Z,22.27
2022-10-18T10:15:26.221Z,22.93
2022-10-18T10:18:05.741Z,24.47
2022-10-18T10:20:36.464Z,26.20
2022-10-18T10:23:14.473Z,35.40
2022-10-18T10:25:41.304Z,28.83
2022-10-18T10:28:16.428Z,26.73
2022-10-18T10:30:43.176Z,20.87
2022-10-18T10:33:32.753Z,21.93
2022-10-18T10:36:00.205Z,23.63
2022-10-18T10:38:30.042Z,26.77
2022-10-18T10:40:57.307Z,25.97
2022-10-18T10:43:39.289Z,25.53
2022-10-18T10:46:19.100Z,32.33
2022-10-18T10:48:50.259Z,26.10
2022-10-18T10:51:27.446Z,21.53
2022-10-18T10:54:04.026Z,25.17
2022-10-18T10:56:35.478Z,31.33
2022-10-18T10:59:32.528Z,24.73
2022-10-18T11:02:14.575Z,23.67
2022-10-18T11:04:41.710Z,28.07
2022-10-18T11:07:24.041Z,25.83
2022-10-18T11:09:56.562Z,36.60
2022-10-18T11:12:41.453Z,29.77
2022-10-18T11:15:13.980Z,25.37
2022-10-18T11:17:56.476Z,30.37
2022-10-18T11:20:29.637Z,24.10
2022-10-18T11:22:58.562Z,29.40
2022-10-18T11:25:39.272Z,28.93
2022-10-18T11:28:19.666Z,30.40
2022-10-18T11:31:06.654Z,29.30
2022-10-18T11:34:08.156Z,27.87
2022-10-18T11:36:45.419Z,29.13
2022-10-18T11:39:49.816Z,29.97
2022-10-18T11:42:16.588Z,25.23
2022-10-18T11:45:11.055Z,29.87
2022-10-18T11:47:41.002Z,23.23
2022-10-18T11:50:26.254Z,26.37
2022-10-18T11:53:30.863Z,28.20
2022-10-18T11:56:17.027Z,31.73
2022-10-18T11:59:05.344Z,20.67
2022-10-18T12:01:36.855Z,31.47
2022-10-18T12:04:15.816Z,30.83
2022-10-18T12:06:43.418Z,24.00
2022-10-18T12:09:25.093Z,23.83
2022-10-18T12:12:04.013Z,29.77
2022-10-18T12:14:33.449Z,27.00
2022-10-18T12:17:34.998Z,24.50
2022-10-18T12:19:50.381Z,29.13
2022-10-18T12:22:39.931Z,26.07
2022-10-18T12:25:12.363Z,22.47
2022-10-18T12:28:03.553Z,27.07
2022-10-18T12:30:48.154Z,31.07
2022-10-18T12:33:27.677Z,23.53
2022-10-18T12:36:23.298Z,21.27
2022-10-18T12:38:55.859Z,21.70
2022-10-18T12:41:30.759Z,23.97
2022-10-18T12:43:59.495Z,27.80
2022-10-18T12:46:44.666Z,24.20
2022-10-18T12:49:12.338Z,30.80
2022-10-18T12:52:03.759Z,24.67
2022-10-18T12:54:31.479Z,26.47
2022-10-18T12:56:59.700Z,23.63
2022-10-18T12:59:28.627Z,23.37
2022-10-18T13:01:57.577Z,26.57
2022-10-18T13:04:29.646Z,24.63
2022-10-18T13:06:59.787Z,26.30
2022-10-18T13:09:36.311Z,28.60
2022-10-18T13:12:13.085Z,23.30
2022-10-18T13:15:24.129Z,25.17
2022-10-18T13:17:52.174Z,27.03
2022-10-18T13:20:27.908Z,29.27
2022-10-18T13:23:08.205Z,24.60
2022-10-18T13:25:55.889Z,25.80
2022-10-18T13:28:25.802Z,28.20
2022-10-18T13:31:24.549Z,30.00
2022-10-18T13:33:51.348Z,31.90
2022-10-18T13:36:22.645Z,31.10
2022-10-18T13:39:02.035Z,28.53
2022-10-18T13:41:35.269Z,26.87
2022-10-18T13:44:02.592Z,26.10
2022-10-18T13:46:36.476Z,26.43
2022-10-18T13:49:23.330Z,31.27
2022-10-18T13:52:19.217Z,25.50
2022-10-18T13:55:10.648Z,26.97
2022-10-18T13:57:40.145Z,25.67
2022-10-18T14:00:48.226Z,29.40
2022-10-18T14:03:54.992Z,21.93
2022-10-18T14:06:22.614Z,28.77
2022-10-18T14:09:25.591Z,23.53
2022-10-18T14:12:17.087Z,34.00
2022-10-18T14:14:50.587Z,25.27
2022-10-18T14:17:44.508Z,26.80
2022-10-18T14:20:36.922Z,26.03
2022-10-18T14:23:44.795Z,28.47
2022-10-18T14:26:19.174Z,28.87
2022-10-18T14:28:59.567Z,27.90
2022-10-18T14:31:27.193Z,31.90
2022-10-18T14:33:57.885Z,29.70
2022-10-18T14:36:36.846Z,26.77
2022-10-18T14:39:04.980Z,24.77
2022-10-18T14:41:40.923Z,36.23
2022-10-18T14:44:18.559Z,33.73
2022-10-18T14:46:55.782Z,26.70
2022-10-18T14:49:22.576Z,28.33
2022-10-18T14:51:51.543Z,25.53
2022-10-18T14:54:20.477Z,30.40
2022-10-18T14:56:47.274Z,27.93
2022-10-18T14:59:42.142Z,33.77
2022-10-18T15:02:19.923Z,34.50
2022-10-18T15:04:47.182Z,28.80
2022-10-18T15:07:17.078Z,27.53
2022-10-18T15:09:45.936Z,27.63
2022-10-18T15:12:13.962Z,28.47
2022-10-18T15:14:41.367Z,26.00
2022-10-18T15:17:25.508Z,45.37
2022-10-18T15:20:06.394Z,27.37
2022-10-18T15:22:35.859Z,29.27
2022-10-18T15:25:18.468Z,25.30
2022-10-18T15:30:28.189Z,34.33
2022-10-18T15:32:59.373Z,29.13
2022-10-18T15:35:29.889Z,29.90
2022-10-18T15:37:58.174Z,20.03
2022-10-18T15:40:30.207Z,13.60
2022-10-18T15:42:58.526Z,8.57
2022-10-18T15:45:25.310Z,9.10
2022-10-18T15:48:10.973Z,7.13
2022-10-18T15:50:38.418Z,5.70
2022-10-18T15:53:21.005Z,5.40
2022-10-18T15:55:55.583Z,3.33
2022-10-18T15:58:32.058Z,3.93
2022-10-18T16:01:00.192Z,4.63
2022-10-18T16:03:27.040Z,4.50
2022-10-18T16:06:04.008Z,8.30
2022-10-18T16:08:32.178Z,5.53
2022-10-18T16:11:04.818Z,10.30
2022-10-18T16:13:31.641Z,7.70
2022-10-18T16:16:00.602Z,8.47
2022-10-18T16:18:27.368Z,7.50
2022-10-18T16:20:54.274Z,8.60
2022-10-18T16:23:28.633Z,7.33
2022-10-18T16:25:55.553Z,7.20
2022-10-18T16:28:24.194Z,8.37
2022-10-18T16:30:55.274Z,5.93
2022-10-18T16:33:22.262Z,10.57
2022-10-18T16:35:49.424Z,8.07
2022-10-18T16:38:32.619Z,9.33
2022-10-18T16:41:01.848Z,7.77
2022-10-18T16:43:28.705Z,8.90
2022-10-18T16:45:55.483Z,9.07
2022-10-18T16:48:24.037Z,7.93
2022-10-18T16:50:51.532Z,11.57
2022-10-18T16:53:23.400Z,10.70
2022-10-18T16:55:55.163Z,10.90
2022-10-18T17:00:50.810Z,10.70
2022-10-18T17:03:17.984Z,14.27
2022-10-18T17:05:47.092Z,11.63
2022-10-18T17:08:27.279Z,11.63
2022-10-18T17:10:55.699Z,10.40
2022-10-18T17:13:22.847Z,14.60
2022-10-18T17:15:49.997Z,11.63
2022-10-18T17:18:19.042Z,10.97
2022-10-18T17:20:45.812Z,15.00
2022-10-18T17:23:14.933Z,10.43
2022-10-18T17:25:59.106Z,11.77
2022-10-18T17:28:33.854Z,14.07
2022-10-18T17:31:00.718Z,12.67
2022-10-18T17:33:27.477Z,16.60
2022-10-18T17:36:01.192Z,12.37
2022-10-18T17:38:28.050Z,12.07
2022-10-18T17:40:57.223Z,12.13
2022-10-18T17:43:24.015Z,10.23
2022-10-18T17:45:54.578Z,12.70
2022-10-18T17:48:21.669Z,10.70
2022-10-18T17:50:50.979Z,9.50
2022-10-18T17:53:22.993Z,7.30
2022-10-18T17:55:49.833Z,7.57
2022-10-18T17:58:16.702Z,5.50
2022-10-18T18:00:43.452Z,6.57
2022-10-18T18:03:13.535Z,5.57
2022-10-18T18:05:40.899Z,5.67
2022-10-18T18:08:07.652Z,7.43
2022-10-18T18:10:36.785Z,5.20
2022-10-18T18:13:06.038Z,8.90
2022-10-18T18:15:37.595Z,7.00
2022-10-18T18:18:04.521Z,6.97
2022-10-18T18:20:31.271Z,6.53
2022-10-18T18:22:58.058Z,8.27
2022-10-18T18:25:24.813Z,6.90
2022-10-18T18:27:51.605Z,6.47
2022-10-18T18:30:21.875Z,6.30
2022-10-18T18:32:48.677Z,8.17
2022-10-18T18:35:15.445Z,8.37
2022-10-18T18:37:42.225Z,8.07
2022-10-18T18:40:09.539Z,6.40
2022-10-18T18:42:38.866Z,6.67
2022-10-18T18:45:06.179Z,6.83
2022-10-18T18:47:35.637Z,8.50
2022-10-18T18:50:04.639Z,8.07
2022-10-18T18:52:33.866Z,8.07
2022-10-18T18:55:00.922Z,9.13
2022-10-18T18:57:31.223Z,8.07
2022-10-18T18:59:58.141Z,9.77
2022-10-18T19:02:24.901Z,8.30
2022-10-18T19:04:51.697Z,10.07
2022-10-18T19:07:18.498Z,8.07
2022-10-18T19:09:46.981Z,12.43
2022-10-18T19:12:15.372Z,8.23
2022-10-18T19:14:44.650Z,9.63
2022-10-18T19:17:11.398Z,6.73
2022-10-18T19:19:40.837Z,7.60
2022-10-18T19:22:11.153Z,5.70
2022-10-18T19:24:37.968Z,8.40
2022-10-18T19:27:08.743Z,7.43
2022-10-18T19:29:37.261Z,11.00
2022-10-18T19:32:06.150Z,7.40
2022-10-18T19:34:34.393Z,10.30
2022-10-18T19:37:01.395Z,10.07
2022-10-18T19:39:34.412Z,7.50
2022-10-18T19:42:03.554Z,7.57
2022-10-18T19:44:31.641Z,8.20
2022-10-18T19:46:58.499Z,6.70
2022-10-18T19:49:28.754Z,7.53
2022-10-18T19:51:56.183Z,9.90
2022-10-18T19:54:23.143Z,8.60
2022-10-18T19:56:49.971Z,8.00
2022-10-18T19:59:17.008Z,8.47
2022-10-18T20:01:44.107Z,7.37
2022-10-18T20:04:11.130Z,12.10
2022-10-18T20:06:40.614Z,10.43
2022-10-18T20:09:07.891Z,11.43
2022-10-18T20:11:34.742Z,9.43
2022-10-18T20:14:01.527Z,11.30
2022-10-18T20:16:30.511Z,10.83
2022-10-18T20:19:00.266Z,7.60
2022-10-18T20:21:27.610Z,11.10
2022-10-18T20:23:54.606Z,9.03
2022-10-18T20:26:26.157Z,10.17
2022-10-18T20:29:00.617Z,8.63
2022-10-18T20:31:29.344Z,10.57
2022-10-18T20:33:58.083Z,8.37
2022-10-18T20:36:25.271Z,8.40
2022-10-18T20:38:53.292Z,8.80
2022-10-18T20:41:21.801Z,8.70
2022-10-18T20:43:57.781Z,12.30
2022-10-18T20:46:25.032Z,7.30
2022-10-18T20:48:52.059Z,8.93
2022-10-18T20:51:18.971Z,9.03
2022-10-18T20:53:50.868Z,8.77
2022-10-18T20:56:23.300Z,7.23
2022-10-18T20:58:51.458Z,7.93
2022-10-18T21:01:22.131Z,8.63
2022-10-18T21:03:49.832Z,9.10
2022-10-18T21:06:27.666Z,9.60
2022-10-18T21:09:01.789Z,10.93
2022-10-18T21:11:29.390Z,10.23
2022-10-18T21:14:02.859Z,10.27
2022-10-18T21:16:32.711Z,14.97
2022-10-18T21:19:06.688Z,11.83
2022-10-18T21:21:33.654Z,13.03
2022-10-18T21:24:05.536Z,14.57
2022-10-18T21:26:37.014Z,16.57
2022-10-18T21:29:05.847Z,14.43
2022-10-18T21:31:34.876Z,15.50
2022-10-18T21:34:05.843Z,14.43
2022-10-18T21:36:36.754Z,16.20
2022-10-18T21:39:07.812Z,18.10
2022-10-18T21:41:34.687Z,18.60
2022-10-18T21:44:04.524Z,15.93
2022-10-18T21:46:33.796Z,18.83
2022-10-18T21:49:03.049Z,17.87
2022-10-18T21:51:32.111Z,20.00
2022-10-18T21:53:59.107Z,19.40
2022-10-18T21:56:32.769Z,18.70
2022-10-18T21:59:01.859Z,24.97
2022-10-18T22:01:32.366Z,21.43
2022-10-18T22:03:59.914Z,21.97
2022-10-18T22:06:29.271Z,21.17
2022-10-18T22:08:57.663Z,23.00
2022-10-18T22:11:29.242Z,20.07
2022-10-18T22:13:58.987Z,18.10
2022-10-18T22:16:25.924Z,19.33
2022-10-18T22:18:55.445Z,17.90
2022-10-18T22:21:22.228Z,18.17
2022-10-18T22:23:51.469Z,21.63
2022-10-18T22:26:23.530Z,22.73
2022-10-18T22:29:01.178Z,20.77
2022-10-18T22:31:31.207Z,26.60
2022-10-18T22:34:05.617Z,20.30
2022-10-18T22:36:32.836Z,18.90
2022-10-18T22:39:02.201Z,20.33
2022-10-18T22:41:29.052Z,20.93
2022-10-18T22:43:58.417Z,24.97
2022-10-18T22:46:27.944Z,18.27
2022-10-18T22:48:55.050Z,19.83
2022-10-18T22:51:21.897Z,21.77
2022-10-18T22:53:48.716Z,23.70
2022-10-18T22:56:18.901Z,26.13
2022-10-18T22:58:45.815Z,19.67
2022-10-18T23:01:13.826Z,23.67
2022-10-18T23:03:43.187Z,20.27
2022-10-18T23:06:23.384Z,23.73
2022-10-18T23:08:50.628Z,21.73
2022-10-18T23:11:17.483Z,22.13
2022-10-18T23:13:46.888Z,19.43
2022-10-18T23:16:16.399Z,25.47
2022-10-18T23:18:45.360Z,20.80
2022-10-18T23:21:15.756Z,22.50
2022-10-18T23:23:42.672Z,22.57
2022-10-18T23:26:13.970Z,19.37
2022-10-18T23:28:43.071Z,19.80
2022-10-18T23:31:25.233Z,19.83
2022-10-18T23:33:53.366Z,22.77
2022-10-18T23:36:20.196Z,18.47
2022-10-18T23:38:46.994Z,19.90
2022-10-18T23:41:14.538Z,22.30
2022-10-18T23:43:41.432Z,22.87
2022-10-18T23:46:08.344Z,23.77
2022-10-18T23:48:35.216Z,20.60
2022-10-18T23:51:02.415Z,24.57
2022-10-18T23:53:31.854Z,20.87
2022-10-18T23:56:00.102Z,20.97
2022-10-18T23:58:27.490Z,21.17
